Decoded Metar for UKLR (ROVNO in UKRAINE) (IATA:N/A) | Meteo·Mobile Aviation Weather
aviador You're here:

UKLR Decoded Metar

ROVNO in UKRAINE
Report Time2019-10-21 08:00:00
UTC Time2019-10-21 08:30:37
Flight Rules vfr VFR
Wind160° at 4 kt
W.Decomp.*RWY 12: 3.2 kt HW 2.4 kt RCW
Visibility9999 m
Phenomena:N/A
Clouds:N/A
Expected CloudBase > 1,600 ft AGL from Temp-Dew spread
CeilingNone
Temp15°C (ISA +1)
Dew Point11°C (77% RH)
AAT13.9°C
QNH1021 hPa
Density Alt843 ft
Elevation755 ft
Report Wrong Elevation
Raw Report
UKLR 210800Z 16002MPS 060V240 CAVOK 15/11 Q1021 NOSIG=

Extra information for UKLR:More info

Metar Taf Metar & Taf Last 4 Metars F.Rules Stats Wind Profile Meteogram Temp Stats Airport Information Weather charts Add Link Nearby VenuesMetar ALERT Operation Metar Decoded Social comments